sensor_id;sensor_type;location;lat;lon;timestamp;temperature;humidity
65707;SHT31;52423;43.512;5.220;2022-09-21T00:02:19;16.61;50.66
65707;SHT31;52423;43.512;5.220;2022-09-21T00:04:45;16.40;51.04
65707;SHT31;52423;43.512;5.220;2022-09-21T00:07:10;16.33;51.19
65707;SHT31;52423;43.512;5.220;2022-09-21T00:09:36;16.24;51.39
65707;SHT31;52423;43.512;5.220;2022-09-21T00:12:02;15.94;52.75
65707;SHT31;52423;43.512;5.220;2022-09-21T00:14:27;15.79;52.82
65707;SHT31;52423;43.512;5.220;2022-09-21T00:16:55;15.59;54.04
65707;SHT31;52423;43.512;5.220;2022-09-21T00:19:21;15.59;53.63
65707;SHT31;52423;43.512;5.220;2022-09-21T00:21:47;15.73;53.59
65707;SHT31;52423;43.512;5.220;2022-09-21T00:24:13;15.61;54.15
65707;SHT31;52423;43.512;5.220;2022-09-21T00:26:39;15.41;55.00
65707;SHT31;52423;43.512;5.220;2022-09-21T00:29:04;15.34;55.20
65707;SHT31;52423;43.512;5.220;2022-09-21T00:31:30;15.22;55.04
65707;SHT31;52423;43.512;5.220;2022-09-21T00:33:57;15.44;55.32
65707;SHT31;52423;43.512;5.220;2022-09-21T00:36:24;15.70;54.38
65707;SHT31;52423;43.512;5.220;2022-09-21T00:38:51;15.76;54.03
65707;SHT31;52423;43.512;5.220;2022-09-21T00:41:18;15.76;54.17
65707;SHT31;52423;43.512;5.220;2022-09-21T00:44:09;15.63;54.09
65707;SHT31;52423;43.512;5.220;2022-09-21T00:46:35;15.67;53.89
65707;SHT31;52423;43.512;5.220;2022-09-21T00:49:02;15.34;55.37
65707;SHT31;52423;43.512;5.220;2022-09-21T00:51:28;15.25;56.03
65707;SHT31;52423;43.512;5.220;2022-09-21T00:54:00;15.34;55.36
65707;SHT31;52423;43.512;5.220;2022-09-21T00:56:27;15.10;56.76
65707;SHT31;52423;43.512;5.220;2022-09-21T00:58:54;15.22;56.21
65707;SHT31;52423;43.512;5.220;2022-09-21T01:01:20;15.22;56.27
65707;SHT31;52423;43.512;5.220;2022-09-21T01:03:48;15.36;55.70
65707;SHT31;52423;43.512;5.220;2022-09-21T01:06:16;15.34;55.51
65707;SHT31;52423;43.512;5.220;2022-09-21T01:08:45;15.22;55.23
65707;SHT31;52423;43.512;5.220;2022-09-21T01:16:35;15.35;52.95
65707;SHT31;52423;43.512;5.220;2022-09-21T01:24:53;15.69;51.95
65707;SHT31;52423;43.512;5.220;2022-09-21T01:27:37;15.75;51.31
65707;SHT31;52423;43.512;5.220;2022-09-21T01:30:12;15.78;51.57
65707;SHT31;52423;43.512;5.220;2022-09-21T01:35:30;15.83;51.27
65707;SHT31;52423;43.512;5.220;2022-09-21T01:38:03;15.90;50.70
65707;SHT31;52423;43.512;5.220;2022-09-21T01:40:34;15.83;51.44
65707;SHT31;52423;43.512;5.220;2022-09-21T01:43:02;15.85;51.22
65707;SHT31;52423;43.512;5.220;2022-09-21T01:45:35;15.89;50.64
65707;SHT31;52423;43.512;5.220;2022-09-21T01:48:04;15.96;51.02
65707;SHT31;52423;43.512;5.220;2022-09-21T01:50:34;15.89;50.91
65707;SHT31;52423;43.512;5.220;2022-09-21T01:55:52;15.94;50.89
65707;SHT31;52423;43.512;5.220;2022-09-21T01:58:25;15.92;51.32
65707;SHT31;52423;43.512;5.220;2022-09-21T02:00:54;15.99;51.31
65707;SHT31;52423;43.512;5.220;2022-09-21T02:05:51;15.86;51.98
65707;SHT31;52423;43.512;5.220;2022-09-21T02:08:16;15.96;51.44
65707;SHT31;52423;43.512;5.220;2022-09-21T02:10:46;15.94;51.36
65707;SHT31;52423;43.512;5.220;2022-09-21T02:13:13;15.73;52.47
65707;SHT31;52423;43.512;5.220;2022-09-21T02:20:57;15.70;52.55
65707;SHT31;52423;43.512;5.220;2022-09-21T02:23:32;15.58;52.94
65707;SHT31;52423;43.512;5.220;2022-09-21T02:31:15;15.25;53.68
65707;SHT31;52423;43.512;5.220;2022-09-21T02:33:57;15.28;54.03
65707;SHT31;52423;43.512;5.220;2022-09-21T02:36:45;15.28;54.49
65707;SHT31;52423;43.512;5.220;2022-09-21T02:39:20;15.05;54.90
65707;SHT31;52423;43.512;5.220;2022-09-21T02:44:39;15.01;54.57
65707;SHT31;52423;43.512;5.220;2022-09-21T02:47:17;14.88;55.43
65707;SHT31;52423;43.512;5.220;2022-09-21T02:49:48;14.79;55.25
65707;SHT31;52423;43.512;5.220;2022-09-21T02:52:16;14.70;56.43
65707;SHT31;52423;43.512;5.220;2022-09-21T02:54:44;14.70;56.32
65707;SHT31;52423;43.512;5.220;2022-09-21T02:57:14;14.88;55.00
65707;SHT31;52423;43.512;5.220;2022-09-21T02:59:40;14.44;56.40
65707;SHT31;52423;43.512;5.220;2022-09-21T03:02:05;14.81;55.61
65707;SHT31;52423;43.512;5.220;2022-09-21T03:04:32;14.55;56.12
65707;SHT31;52423;43.512;5.220;2022-09-21T03:06:57;14.60;56.55
65707;SHT31;52423;43.512;5.220;2022-09-21T03:09:23;14.50;56.60
65707;SHT31;52423;43.512;5.220;2022-09-21T03:11:50;14.36;57.18
65707;SHT31;52423;43.512;5.220;2022-09-21T03:14:15;14.28;57.32
65707;SHT31;52423;43.512;5.220;2022-09-21T03:16:41;14.13;57.69
65707;SHT31;52423;43.512;5.220;2022-09-21T03:19:06;14.25;57.13
65707;SHT31;52423;43.512;5.220;2022-09-21T03:21:33;14.44;57.40
65707;SHT31;52423;43.512;5.220;2022-09-21T03:23:58;14.22;58.03
65707;SHT31;52423;43.512;5.220;2022-09-21T03:26:24;14.00;58.60
65707;SHT31;52423;43.512;5.220;2022-09-21T03:28:50;13.95;59.15
65707;SHT31;52423;43.512;5.220;2022-09-21T03:31:19;14.00;58.96
65707;SHT31;52423;43.512;5.220;2022-09-21T03:33:45;14.30;58.41
65707;SHT31;52423;43.512;5.220;2022-09-21T03:36:10;14.33;57.59
65707;SHT31;52423;43.512;5.220;2022-09-21T03:38:36;14.28;56.92
65707;SHT31;52423;43.512;5.220;2022-09-21T03:41:02;14.40;56.91
65707;SHT31;52423;43.512;5.220;2022-09-21T03:43:29;14.49;56.61
65707;SHT31;52423;43.512;5.220;2022-09-21T03:45:54;14.64;56.01
65707;SHT31;52423;43.512;5.220;2022-09-21T03:48:20;14.62;55.49
65707;SHT31;52423;43.512;5.220;2022-09-21T03:50:46;14.53;56.83
65707;SHT31;52423;43.512;5.220;2022-09-21T03:53:12;14.57;56.08
65707;SHT31;52423;43.512;5.220;2022-09-21T03:55:38;14.56;55.74
65707;SHT31;52423;43.512;5.220;2022-09-21T03:58:04;14.66;56.07
65707;SHT31;52423;43.512;5.220;2022-09-21T04:00:30;14.56;55.89
65707;SHT31;52423;43.512;5.220;2022-09-21T04:02:55;14.47;56.50
65707;SHT31;52423;43.512;5.220;2022-09-21T04:05:21;14.43;56.96
65707;SHT31;52423;43.512;5.220;2022-09-21T04:07:48;14.49;57.05
65707;SHT31;52423;43.512;5.220;2022-09-21T04:10:17;14.52;56.34
65707;SHT31;52423;43.512;5.220;2022-09-21T04:12:45;14.57;56.75
65707;SHT31;52423;43.512;5.220;2022-09-21T04:15:16;14.63;56.67
65707;SHT31;52423;43.512;5.220;2022-09-21T04:17:45;14.55;56.55
65707;SHT31;52423;43.512;5.220;2022-09-21T04:20:11;14.60;56.66
65707;SHT31;52423;43.512;5.220;2022-09-21T04:22:37;14.53;57.13
65707;SHT31;52423;43.512;5.220;2022-09-21T04:25:04;14.53;57.24
65707;SHT31;52423;43.512;5.220;2022-09-21T04:27:31;14.43;57.47
65707;SHT31;52423;43.512;5.220;2022-09-21T04:29:56;14.25;57.24
65707;SHT31;52423;43.512;5.220;2022-09-21T04:32:22;14.22;58.02
65707;SHT31;52423;43.512;5.220;2022-09-21T04:34:48;14.23;57.15
65707;SHT31;52423;43.512;5.220;2022-09-21T04:37:13;14.33;57.90
65707;SHT31;52423;43.512;5.220;2022-09-21T04:39:39;14.52;57.16
65707;SHT31;52423;43.512;5.220;2022-09-21T04:42:05;14.55;57.02
65707;SHT31;52423;43.512;5.220;2022-09-21T04:44:30;14.56;57.26
65707;SHT31;52423;43.512;5.220;2022-09-21T04:46:56;14.46;57.49
65707;SHT31;52423;43.512;5.220;2022-09-21T04:49:22;14.47;57.65
65707;SHT31;52423;43.512;5.220;2022-09-21T04:51:48;14.30;57.83
65707;SHT31;52423;43.512;5.220;2022-09-21T04:54:14;14.21;58.59
65707;SHT31;52423;43.512;5.220;2022-09-21T04:56:40;14.13;58.63
65707;SHT31;52423;43.512;5.220;2022-09-21T04:59:05;14.02;58.33
65707;SHT31;52423;43.512;5.220;2022-09-21T05:01:31;14.08;57.79
65707;SHT31;52423;43.512;5.220;2022-09-21T05:03:57;14.02;58.41
65707;SHT31;52423;43.512;5.220;2022-09-21T05:06:29;14.01;59.19
65707;SHT31;52423;43.512;5.220;2022-09-21T05:08:56;13.97;58.37
65707;SHT31;52423;43.512;5.220;2022-09-21T05:11:40;14.15;58.74
65707;SHT31;52423;43.512;5.220;2022-09-21T05:14:06;14.15;58.31
65707;SHT31;52423;43.512;5.220;2022-09-21T05:16:33;14.06;57.96
65707;SHT31;52423;43.512;5.220;2022-09-21T05:18:58;14.05;58.18
65707;SHT31;52423;43.512;5.220;2022-09-21T05:21:24;14.01;58.10
65707;SHT31;52423;43.512;5.220;2022-09-21T05:23:50;14.02;58.86
65707;SHT31;52423;43.512;5.220;2022-09-21T05:26:16;13.92;58.40
65707;SHT31;52423;43.512;5.220;2022-09-21T05:28:42;13.88;59.38
65707;SHT31;52423;43.512;5.220;2022-09-21T05:33:39;13.79;58.95
65707;SHT31;52423;43.512;5.220;2022-09-21T05:38:54;13.70;59.82
65707;SHT31;52423;43.512;5.220;2022-09-21T05:41:21;13.75;59.69
65707;SHT31;52423;43.512;5.220;2022-09-21T05:43:47;13.81;59.89
65707;SHT31;52423;43.512;5.220;2022-09-21T05:46:17;13.85;59.48
65707;SHT31;52423;43.512;5.220;2022-09-21T05:48:53;13.94;58.88
65707;SHT31;52423;43.512;5.220;2022-09-21T05:57:16;14.12;58.84
65707;SHT31;52423;43.512;5.220;2022-09-21T05:59:52;14.09;58.21
65707;SHT31;52423;43.512;5.220;2022-09-21T06:05:31;14.37;58.48
65707;SHT31;52423;43.512;5.220;2022-09-21T06:07:56;14.46;57.90
65707;SHT31;52423;43.512;5.220;2022-09-21T06:10:22;14.50;58.22
65707;SHT31;52423;43.512;5.220;2022-09-21T06:12:49;14.62;57.39
65707;SHT31;52423;43.512;5.220;2022-09-21T06:15:15;14.62;57.89
65707;SHT31;52423;43.512;5.220;2022-09-21T06:17:41;14.62;57.54
65707;SHT31;52423;43.512;5.220;2022-09-21T06:20:08;14.69;57.61
65707;SHT31;52423;43.512;5.220;2022-09-21T06:22:34;14.83;57.80
65707;SHT31;52423;43.512;5.220;2022-09-21T06:24:59;14.76;58.01
65707;SHT31;52423;43.512;5.220;2022-09-21T06:27:27;14.90;58.05
65707;SHT31;52423;43.512;5.220;2022-09-21T06:29:53;14.93;58.23
65707;SHT31;52423;43.512;5.220;2022-09-21T06:32:18;15.10;57.38
65707;SHT31;52423;43.512;5.220;2022-09-21T06:34:44;15.10;57.76
65707;SHT31;52423;43.512;5.220;2022-09-21T06:37:09;15.15;57.83
65707;SHT31;52423;43.512;5.220;2022-09-21T06:39:35;15.21;57.73
65707;SHT31;52423;43.512;5.220;2022-09-21T06:42:00;15.31;58.12
65707;SHT31;52423;43.512;5.220;2022-09-21T06:44:26;15.48;57.59
65707;SHT31;52423;43.512;5.220;2022-09-21T06:46:54;15.56;56.53
65707;SHT31;52423;43.512;5.220;2022-09-21T06:49:19;15.61;56.93
65707;SHT31;52423;43.512;5.220;2022-09-21T06:51:46;15.73;56.96
65707;SHT31;52423;43.512;5.220;2022-09-21T06:54:12;15.89;56.49
65707;SHT31;52423;43.512;5.220;2022-09-21T06:56:37;15.99;57.02
65707;SHT31;52423;43.512;5.220;2022-09-21T06:59:03;16.06;56.05
65707;SHT31;52423;43.512;5.220;2022-09-21T07:01:29;16.25;54.47
65707;SHT31;52423;43.512;5.220;2022-09-21T07:03:54;16.37;54.73
65707;SHT31;52423;43.512;5.220;2022-09-21T07:06:20;16.43;54.13
65707;SHT31;52423;43.512;5.220;2022-09-21T07:08:46;16.62;53.66
65707;SHT31;52423;43.512;5.220;2022-09-21T07:11:12;16.54;52.95
65707;SHT31;52423;43.512;5.220;2022-09-21T07:13:40;16.54;52.85
65707;SHT31;52423;43.512;5.220;2022-09-21T07:16:07;16.57;53.99
65707;SHT31;52423;43.512;5.220;2022-09-21T07:18:34;16.76;53.57
65707;SHT31;52423;43.512;5.220;2022-09-21T07:21:03;16.89;53.36
65707;SHT31;52423;43.512;5.220;2022-09-21T07:23:29;17.15;54.21
65707;SHT31;52423;43.512;5.220;2022-09-21T07:25:54;17.20;53.72
65707;SHT31;52423;43.512;5.220;2022-09-21T07:28:20;17.57;52.63
65707;SHT31;52423;43.512;5.220;2022-09-21T07:30:46;17.78;52.67
65707;SHT31;52423;43.512;5.220;2022-09-21T07:33:11;17.88;51.62
65707;SHT31;52423;43.512;5.220;2022-09-21T07:35:37;17.87;51.28
65707;SHT31;52423;43.512;5.220;2022-09-21T07:38:05;17.87;52.20
65707;SHT31;52423;43.512;5.220;2022-09-21T07:40:31;18.11;52.79
65707;SHT31;52423;43.512;5.220;2022-09-21T07:43:00;18.34;51.50
65707;SHT31;52423;43.512;5.220;2022-09-21T07:45:29;18.38;51.35
65707;SHT31;52423;43.512;5.220;2022-09-21T07:48:00;18.35;52.03
65707;SHT31;52423;43.512;5.220;2022-09-21T07:50:26;18.38;50.74
65707;SHT31;52423;43.512;5.220;2022-09-21T07:52:51;18.42;51.25
65707;SHT31;52423;43.512;5.220;2022-09-21T07:55:17;18.53;51.06
65707;SHT31;52423;43.512;5.220;2022-09-21T07:57:43;19.10;50.01
65707;SHT31;52423;43.512;5.220;2022-09-21T08:00:27;19.65;50.09
65707;SHT31;52423;43.512;5.220;2022-09-21T08:02:57;19.64;48.62
65707;SHT31;52423;43.512;5.220;2022-09-21T08:05:23;19.51;48.64
65707;SHT31;52423;43.512;5.220;2022-09-21T08:07:48;19.23;49.38
65707;SHT31;52423;43.512;5.220;2022-09-21T08:10:14;19.36;49.01
65707;SHT31;52423;43.512;5.220;2022-09-21T08:12:40;19.51;48.92
65707;SHT31;52423;43.512;5.220;2022-09-21T08:15:06;19.58;48.32
65707;SHT31;52423;43.512;5.220;2022-09-21T08:17:32;20.09;48.45
65707;SHT31;52423;43.512;5.220;2022-09-21T08:19:57;20.61;47.32
65707;SHT31;52423;43.512;5.220;2022-09-21T08:22:23;21.02;46.61
65707;SHT31;52423;43.512;5.220;2022-09-21T08:24:50;20.96;46.29
65707;SHT31;52423;43.512;5.220;2022-09-21T08:27:17;21.05;46.76
65707;SHT31;52423;43.512;5.220;2022-09-21T08:29:44;20.99;46.87
65707;SHT31;52423;43.512;5.220;2022-09-21T08:32:10;21.16;47.09
65707;SHT31;52423;43.512;5.220;2022-09-21T08:34:36;21.12;46.48
65707;SHT31;52423;43.512;5.220;2022-09-21T08:37:02;21.31;47.12
65707;SHT31;52423;43.512;5.220;2022-09-21T08:39:27;21.31;47.93
65707;SHT31;52423;43.512;5.220;2022-09-21T08:47:14;21.76;46.84
65707;SHT31;52423;43.512;5.220;2022-09-21T08:49:46;21.74;46.88
65707;SHT31;52423;43.512;5.220;2022-09-21T08:52:15;22.08;47.66
65707;SHT31;52423;43.512;5.220;2022-09-21T08:54:50;21.83;46.86
65707;SHT31;52423;43.512;5.220;2022-09-21T08:57:18;21.70;47.43
65707;SHT31;52423;43.512;5.220;2022-09-21T08:59:46;21.67;46.72
65707;SHT31;52423;43.512;5.220;2022-09-21T09:05:43;20.71;49.35
65707;SHT31;52423;43.512;5.220;2022-09-21T09:13:56;20.78;49.42
65707;SHT31;52423;43.512;5.220;2022-09-21T09:16:58;20.74;49.92
65707;SHT31;52423;43.512;5.220;2022-09-21T09:19:41;20.96;49.83
65707;SHT31;52423;43.512;5.220;2022-09-21T09:22:11;21.14;49.89
65707;SHT31;52423;43.512;5.220;2022-09-21T09:35:27;21.39;50.18
65707;SHT31;52423;43.512;5.220;2022-09-21T09:38:04;21.14;50.11
65707;SHT31;52423;43.512;5.220;2022-09-21T09:41:02;21.42;50.08
65707;SHT31;52423;43.512;5.220;2022-09-21T09:43:51;21.53;50.27
65707;SHT31;52423;43.512;5.220;2022-09-21T09:49:51;21.93;49.32
65707;SHT31;52423;43.512;5.220;2022-09-21T09:51:56;22.38;49.37
65707;SHT31;52423;43.512;5.220;2022-09-21T09:54:24;22.28;48.59
65707;SHT31;52423;43.512;5.220;2022-09-21T09:56:51;22.45;48.80
65707;SHT31;52423;43.512;5.220;2022-09-21T09:59:28;22.40;48.04
65707;SHT31;52423;43.512;5.220;2022-09-21T10:04:30;22.17;49.36
65707;SHT31;52423;43.512;5.220;2022-09-21T10:06:56;22.17;49.89
65707;SHT31;52423;43.512;5.220;2022-09-21T10:11:47;22.31;48.41
65707;SHT31;52423;43.512;5.220;2022-09-21T10:14:21;22.83;47.91
65707;SHT31;52423;43.512;5.220;2022-09-21T10:16:49;22.44;47.76
65707;SHT31;52423;43.512;5.220;2022-09-21T10:19:28;23.09;47.66
65707;SHT31;52423;43.512;5.220;2022-09-21T10:21:59;22.83;47.32
65707;SHT31;52423;43.512;5.220;2022-09-21T10:24:30;22.58;48.46
65707;SHT31;52423;43.512;5.220;2022-09-21T10:27:12;22.98;49.36
65707;SHT31;52423;43.512;5.220;2022-09-21T10:37:38;22.31;50.77
65707;SHT31;52423;43.512;5.220;2022-09-21T10:42:42;22.99;51.13
65707;SHT31;52423;43.512;5.220;2022-09-21T10:45:15;23.37;49.38
65707;SHT31;52423;43.512;5.220;2022-09-21T10:47:44;23.09;49.60
65707;SHT31;52423;43.512;5.220;2022-09-21T10:53:01;22.51;52.36
65707;SHT31;52423;43.512;5.220;2022-09-21T10:55:49;22.51;52.64
65707;SHT31;52423;43.512;5.220;2022-09-21T10:58:17;22.58;51.89
65707;SHT31;52423;43.512;5.220;2022-09-21T11:00:47;22.41;52.85
65707;SHT31;52423;43.512;5.220;2022-09-21T11:06:09;22.34;53.99
65707;SHT31;52423;43.512;5.220;2022-09-21T11:08:45;22.35;54.28
65707;SHT31;52423;43.512;5.220;2022-09-21T11:11:29;22.30;54.51
65707;SHT31;52423;43.512;5.220;2022-09-21T11:16:35;22.24;53.42
65707;SHT31;52423;43.512;5.220;2022-09-21T11:21:59;22.40;53.90
65707;SHT31;52423;43.512;5.220;2022-09-21T11:27:19;22.64;50.74
65707;SHT31;52423;43.512;5.220;2022-09-21T11:38:36;23.09;50.02
65707;SHT31;52423;43.512;5.220;2022-09-21T11:52:19;24.70;47.05
65707;SHT31;52423;43.512;5.220;2022-09-21T12:00:16;25.00;45.94
65707;SHT31;52423;43.512;5.220;2022-09-21T12:05:30;25.17;45.93
65707;SHT31;52423;43.512;5.220;2022-09-21T12:19:14;25.32;47.00
65707;SHT31;52423;43.512;5.220;2022-09-21T12:21:48;25.41;47.25
65707;SHT31;52423;43.512;5.220;2022-09-21T12:24:25;25.55;47.26
65707;SHT31;52423;43.512;5.220;2022-09-21T12:26:56;25.71;47.31
65707;SHT31;52423;43.512;5.220;2022-09-21T12:29:27;25.49;48.41
65707;SHT31;52423;43.512;5.220;2022-09-21T12:32:10;25.62;48.30
65707;SHT31;52423;43.512;5.220;2022-09-21T12:34:42;25.68;47.36
65707;SHT31;52423;43.512;5.220;2022-09-21T12:37:43;25.71;48.03
65707;SHT31;52423;43.512;5.220;2022-09-21T12:40:05;25.65;48.24
65707;SHT31;52423;43.512;5.220;2022-09-21T12:42:43;25.52;49.20
65707;SHT31;52423;43.512;5.220;2022-09-21T12:45:24;25.30;50.45
65707;SHT31;52423;43.512;5.220;2022-09-21T12:52:59;25.68;49.11
65707;SHT31;52423;43.512;5.220;2022-09-21T13:07:26;25.51;49.19
65707;SHT31;52423;43.512;5.220;2022-09-21T13:09:48;25.72;49.11
65707;SHT31;52423;43.512;5.220;2022-09-21T13:12:22;25.79;48.57
65707;SHT31;52423;43.512;5.220;2022-09-21T13:14:53;25.75;48.65
65707;SHT31;52423;43.512;5.220;2022-09-21T13:17:23;25.71;48.37
65707;SHT31;52423;43.512;5.220;2022-09-21T13:20:20;25.96;49.14
65707;SHT31;52423;43.512;5.220;2022-09-21T13:22:45;25.78;48.47
65707;SHT31;52423;43.512;5.220;2022-09-21T13:25:21;25.88;48.52
65707;SHT31;52423;43.512;5.220;2022-09-21T13:36:00;26.04;49.00
65707;SHT31;52423;43.512;5.220;2022-09-21T13:44:03;25.76;49.34
65707;SHT31;52423;43.512;5.220;2022-09-21T13:52:03;25.48;50.13
65707;SHT31;52423;43.512;5.220;2022-09-21T13:54:51;25.75;49.96
65707;SHT31;52423;43.512;5.220;2022-09-21T13:59:45;25.75;48.74
65707;SHT31;52423;43.512;5.220;2022-09-21T14:02:27;25.51;49.76
65707;SHT31;52423;43.512;5.220;2022-09-21T14:04:55;25.48;49.95
65707;SHT31;52423;43.512;5.220;2022-09-21T14:07:27;25.41;50.06
65707;SHT31;52423;43.512;5.220;2022-09-21T14:09:57;25.44;49.48
65707;SHT31;52423;43.512;5.220;2022-09-21T14:12:25;25.38;50.59
65707;SHT31;52423;43.512;5.220;2022-09-21T14:15:30;25.49;50.79
65707;SHT31;52423;43.512;5.220;2022-09-21T14:23:38;24.94;50.85
65707;SHT31;52423;43.512;5.220;2022-09-21T14:28:56;24.79;50.86
65707;SHT31;52423;43.512;5.220;2022-09-21T14:31:30;24.72;51.59
65707;SHT31;52423;43.512;5.220;2022-09-21T14:33:59;24.49;52.15
65707;SHT31;52423;43.512;5.220;2022-09-21T14:36:38;24.30;52.16
65707;SHT31;52423;43.512;5.220;2022-09-21T14:39:24;24.19;52.46
65707;SHT31;52423;43.512;5.220;2022-09-21T14:41:55;24.23;52.74
65707;SHT31;52423;43.512;5.220;2022-09-21T14:44:31;24.16;52.25
65707;SHT31;52423;43.512;5.220;2022-09-21T14:47:07;24.05;52.84
65707;SHT31;52423;43.512;5.220;2022-09-21T14:50:19;24.16;52.34
65707;SHT31;52423;43.512;5.220;2022-09-21T15:12:53;24.59;49.38
65707;SHT31;52423;43.512;5.220;2022-09-21T15:15:34;24.67;49.40
65707;SHT31;52423;43.512;5.220;2022-09-21T15:18:13;24.70;48.50
65707;SHT31;52423;43.512;5.220;2022-09-21T15:20:39;24.56;49.44
65707;SHT31;52423;43.512;5.220;2022-09-21T15:23:16;24.46;49.41
65707;SHT31;52423;43.512;5.220;2022-09-21T15:25:53;24.25;50.59
65707;SHT31;52423;43.512;5.220;2022-09-21T15:28:34;24.26;49.49
65707;SHT31;52423;43.512;5.220;2022-09-21T15:31:01;24.19;49.66
65707;SHT31;52423;43.512;5.220;2022-09-21T15:33:27;24.16;49.89
65707;SHT31;52423;43.512;5.220;2022-09-21T15:35:52;24.00;50.63
65707;SHT31;52423;43.512;5.220;2022-09-21T15:38:32;24.01;50.74
65707;SHT31;52423;43.512;5.220;2022-09-21T15:41:42;23.86;51.35
65707;SHT31;52423;43.512;5.220;2022-09-21T15:44:27;23.89;51.16
65707;SHT31;52423;43.512;5.220;2022-09-21T15:46:57;23.79;51.91
65707;SHT31;52423;43.512;5.220;2022-09-21T15:49:27;23.84;51.93
65707;SHT31;52423;43.512;5.220;2022-09-21T15:52:08;23.85;52.09
65707;SHT31;52423;43.512;5.220;2022-09-21T15:57:38;23.73;53.23
65707;SHT31;52423;43.512;5.220;2022-09-21T16:00:29;23.64;53.14
65707;SHT31;52423;43.512;5.220;2022-09-21T16:03:18;23.60;52.87
65707;SHT31;52423;43.512;5.220;2022-09-21T16:05:47;23.73;52.09
65707;SHT31;52423;43.512;5.220;2022-09-21T16:08:19;23.89;51.70
65707;SHT31;52423;43.512;5.220;2022-09-21T16:10:47;23.78;51.78
65707;SHT31;52423;43.512;5.220;2022-09-21T16:13:22;23.70;51.83
65707;SHT31;52423;43.512;5.220;2022-09-21T16:16:09;23.67;50.41
65707;SHT31;52423;43.512;5.220;2022-09-21T16:18:49;23.55;49.99
65707;SHT31;52423;43.512;5.220;2022-09-21T16:21:24;23.51;49.01
65707;SHT31;52423;43.512;5.220;2022-09-21T16:23:51;23.43;48.14
65707;SHT31;52423;43.512;5.220;2022-09-21T16:26:26;23.34;48.93
65707;SHT31;52423;43.512;5.220;2022-09-21T16:31:43;23.33;49.26
65707;SHT31;52423;43.512;5.220;2022-09-21T16:34:22;23.27;49.42
65707;SHT31;52423;43.512;5.220;2022-09-21T16:36:57;23.28;50.66
65707;SHT31;52423;43.512;5.220;2022-09-21T16:39:23;23.27;51.05
65707;SHT31;52423;43.512;5.220;2022-09-21T16:42:00;23.24;51.82
65707;SHT31;52423;43.512;5.220;2022-09-21T16:44:27;23.24;50.93
65707;SHT31;52423;43.512;5.220;2022-09-21T16:46:58;23.22;51.70
65707;SHT31;52423;43.512;5.220;2022-09-21T16:49:26;23.19;49.18
65707;SHT31;52423;43.512;5.220;2022-09-21T16:51:54;23.14;49.34
65707;SHT31;52423;43.512;5.220;2022-09-21T16:54:21;23.07;49.48
65707;SHT31;52423;43.512;5.220;2022-09-21T16:56:50;23.03;49.59
65707;SHT31;52423;43.512;5.220;2022-09-21T16:59:18;22.96;50.53
65707;SHT31;52423;43.512;5.220;2022-09-21T17:01:52;22.92;50.03
65707;SHT31;52423;43.512;5.220;2022-09-21T17:04:20;22.86;50.39
65707;SHT31;52423;43.512;5.220;2022-09-21T17:06:50;22.83;50.14
65707;SHT31;52423;43.512;5.220;2022-09-21T17:11:47;22.76;50.80
65707;SHT31;52423;43.512;5.220;2022-09-21T17:14:14;22.71;50.97
65707;SHT31;52423;43.512;5.220;2022-09-21T17:16:47;22.62;51.31
65707;SHT31;52423;43.512;5.220;2022-09-21T17:19:13;22.59;51.77
65707;SHT31;52423;43.512;5.220;2022-09-21T17:21:39;22.52;52.27
65707;SHT31;52423;43.512;5.220;2022-09-21T17:24:05;22.47;52.67
65707;SHT31;52423;43.512;5.220;2022-09-21T17:26:31;22.45;52.87
65707;SHT31;52423;43.512;5.220;2022-09-21T17:28:59;22.42;53.34
65707;SHT31;52423;43.512;5.220;2022-09-21T17:31:25;22.34;53.33
65707;SHT31;52423;43.512;5.220;2022-09-21T17:33:53;22.34;53.46
65707;SHT31;52423;43.512;5.220;2022-09-21T17:36:19;22.27;53.82
65707;SHT31;52423;43.512;5.220;2022-09-21T17:38:44;22.22;54.41
65707;SHT31;52423;43.512;5.220;2022-09-21T17:41:27;22.20;55.87
65707;SHT31;52423;43.512;5.220;2022-09-21T17:44:05;22.17;56.39
65707;SHT31;52423;43.512;5.220;2022-09-21T17:46:53;22.14;57.94
65707;SHT31;52423;43.512;5.220;2022-09-21T17:49:20;22.17;58.34
65707;SHT31;52423;43.512;5.220;2022-09-21T17:51:46;22.14;59.30
65707;SHT31;52423;43.512;5.220;2022-09-21T17:54:44;22.08;59.59
65707;SHT31;52423;43.512;5.220;2022-09-21T17:59:57;22.05;60.22
65707;SHT31;52423;43.512;5.220;2022-09-21T18:02:24;21.98;60.67
65707;SHT31;52423;43.512;5.220;2022-09-21T18:04:52;21.97;60.87
65707;SHT31;52423;43.512;5.220;2022-09-21T18:07:21;21.90;60.98
65707;SHT31;52423;43.512;5.220;2022-09-21T18:09:48;21.90;61.05
65707;SHT31;52423;43.512;5.220;2022-09-21T18:12:43;21.84;61.22
65707;SHT31;52423;43.512;5.220;2022-09-21T18:20:46;21.84;60.62
65707;SHT31;52423;43.512;5.220;2022-09-21T18:26:08;21.77;60.62
65707;SHT31;52423;43.512;5.220;2022-09-21T18:40:08;21.70;59.49
65707;SHT31;52423;43.512;5.220;2022-09-21T18:55:37;21.59;54.24
65707;SHT31;52423;43.512;5.220;2022-09-21T18:58:03;21.46;55.68
65707;SHT31;52423;43.512;5.220;2022-09-21T19:00:29;21.33;55.98
65707;SHT31;52423;43.512;5.220;2022-09-21T19:03:06;21.39;54.91
65707;SHT31;52423;43.512;5.220;2022-09-21T19:05:36;21.22;55.80
65707;SHT31;52423;43.512;5.220;2022-09-21T19:11:08;21.14;56.21
65707;SHT31;52423;43.512;5.220;2022-09-21T19:16:27;21.01;55.64
65707;SHT31;52423;43.512;5.220;2022-09-21T19:32:14;20.74;54.99
65707;SHT31;52423;43.512;5.220;2022-09-21T19:34:40;20.65;55.05
65707;SHT31;52423;43.512;5.220;2022-09-21T19:37:06;20.63;55.23
65707;SHT31;52423;43.512;5.220;2022-09-21T19:39:32;20.60;55.32
65707;SHT31;52423;43.512;5.220;2022-09-21T19:42:17;20.55;55.12
65707;SHT31;52423;43.512;5.220;2022-09-21T19:48:02;20.50;55.58
65707;SHT31;52423;43.512;5.220;2022-09-21T19:50:37;20.51;55.54
65707;SHT31;52423;43.512;5.220;2022-09-21T19:53:04;20.50;55.74
65707;SHT31;52423;43.512;5.220;2022-09-21T19:55:48;20.48;55.52
65707;SHT31;52423;43.512;5.220;2022-09-21T19:58:33;20.53;55.60
65707;SHT31;52423;43.512;5.220;2022-09-21T20:01:19;20.46;55.36
65707;SHT31;52423;43.512;5.220;2022-09-21T20:03:46;20.43;55.67
65707;SHT31;52423;43.512;5.220;2022-09-21T20:06:19;20.40;56.11
65707;SHT31;52423;43.512;5.220;2022-09-21T20:14:24;20.48;55.21
65707;SHT31;52423;43.512;5.220;2022-09-21T20:16:58;20.46;54.80
65707;SHT31;52423;43.512;5.220;2022-09-21T20:22:14;20.40;55.05
65707;SHT31;52423;43.512;5.220;2022-09-21T20:24:50;20.37;56.27
65707;SHT31;52423;43.512;5.220;2022-09-21T20:29:47;20.27;56.05
65707;SHT31;52423;43.512;5.220;2022-09-21T20:32:12;20.30;54.96
65707;SHT31;52423;43.512;5.220;2022-09-21T20:34:38;20.30;54.75
65707;SHT31;52423;43.512;5.220;2022-09-21T20:37:12;20.24;54.11
65707;SHT31;52423;43.512;5.220;2022-09-21T20:39:38;20.33;54.64